createdAt,value
2019-05-15T00:01:05.641Z,98573.50
2019-05-15T00:03:34.010Z,98571.62
2019-05-15T00:06:02.525Z,98567.05
2019-05-15T00:08:30.866Z,98569.67
2019-05-15T00:10:59.253Z,98562.64
2019-05-15T00:13:28.257Z,98562.33
2019-05-15T00:15:58.879Z,98554.32
2019-05-15T00:18:28.116Z,98553.79
2019-05-15T00:20:59.318Z,98551.64
2019-05-15T00:23:28.955Z,98552.95
2019-05-15T00:25:58.472Z,98551.20
2019-05-15T00:28:28.049Z,98552.05
2019-05-15T00:30:58.218Z,98540.49
2019-05-15T00:33:28.478Z,98543.17
2019-05-15T00:35:58.846Z,98542.58
2019-05-15T00:38:27.999Z,98538.22
2019-05-15T00:40:58.450Z,98537.37
2019-05-15T00:43:28.950Z,98531.21
2019-05-15T00:45:58.579Z,98534.17
2019-05-15T00:48:29.218Z,98527.16
2019-05-15T00:50:59.030Z,98529.81
2019-05-15T00:53:28.290Z,98515.27
2019-05-15T00:55:58.087Z,98457.11
2019-05-15T00:58:28.330Z,98457.11
2019-05-15T01:00:59.052Z,98511.78
2019-05-15T01:03:27.923Z,98512.59
2019-05-15T01:05:58.510Z,98506.95
2019-05-15T01:08:28.480Z,98503.12
2019-05-15T01:10:58.225Z,98497.73
2019-05-15T01:13:28.155Z,98493.94
2019-05-15T01:15:58.202Z,98482.52
2019-05-15T01:18:29.060Z,98488.16
2019-05-15T01:20:58.667Z,98488.84
2019-05-15T01:23:28.268Z,98483.42
2019-05-15T01:25:58.744Z,98480.14
2019-05-15T01:28:28.753Z,98468.48
2019-05-15T01:30:59.042Z,98469.00
2019-05-15T01:33:28.299Z,98469.00
2019-05-15T01:35:59.021Z,98473.94
2019-05-15T01:38:28.019Z,98473.94
2019-05-15T01:40:58.983Z,98476.42
2019-05-15T01:43:28.911Z,98467.26
2019-05-15T01:45:58.747Z,98461.91
2019-05-15T01:48:28.259Z,98458.84
2019-05-15T01:50:58.577Z,98458.84
2019-05-15T01:53:28.878Z,98455.35
2019-05-15T01:55:58.952Z,98451.30
2019-05-15T01:58:28.780Z,98456.12
2019-05-15T02:00:58.998Z,98454.17
2019-05-15T02:03:28.947Z,98447.64
2019-05-15T02:05:58.690Z,98447.64
2019-05-15T02:08:28.461Z,98450.64
2019-05-15T02:10:58.794Z,98457.09
2019-05-15T02:13:28.207Z,98450.75
2019-05-15T02:15:58.765Z,98450.75
2019-05-15T02:18:28.542Z,98446.61
2019-05-15T02:20:58.719Z,98443.08
2019-05-15T02:23:28.067Z,98445.04
2019-05-15T02:25:58.705Z,98445.04
2019-05-15T02:28:28.736Z,98439.61
2019-05-15T02:30:58.682Z,98448.38
2019-05-15T02:33:29.737Z,98448.38
2019-05-15T02:35:59.249Z,98440.03
2019-05-15T02:38:29.558Z,98431.58
2019-05-15T02:40:59.274Z,98431.58
2019-05-15T02:43:29.518Z,98437.27
2019-05-15T02:46:00.112Z,98437.27
2019-05-15T02:48:29.029Z,98430.34
2019-05-15T02:50:58.883Z,98410.83
2019-05-15T02:53:29.832Z,98429.70
2019-05-15T02:56:00.068Z,98423.27
2019-05-15T02:58:29.168Z,98424.08
2019-05-15T03:00:59.305Z,98425.08
2019-05-15T03:03:29.468Z,98425.08
2019-05-15T03:06:00.068Z,98424.22
2019-05-15T03:08:29.762Z,98416.52
2019-05-15T03:10:59.227Z,98427.31
2019-05-15T03:13:29.773Z,98424.11
2019-05-15T03:15:59.884Z,98419.55
2019-05-15T03:18:29.095Z,98420.41
2019-05-15T03:21:00.286Z,98413.31
2019-05-15T03:23:29.540Z,98411.98
2019-05-15T03:26:03.006Z,98411.98
2019-05-15T03:28:29.455Z,98414.20
2019-05-15T03:31:31.155Z,98398.19
2019-05-15T03:33:35.882Z,98398.19
2019-05-15T03:36:02.562Z,98413.69
2019-05-15T03:38:30.017Z,98407.42
2019-05-15T03:40:59.522Z,98407.42
2019-05-15T03:43:29.385Z,98409.19
2019-05-15T03:46:01.201Z,98415.78
2019-05-15T03:48:29.648Z,98414.39
2019-05-15T03:50:59.795Z,98409.53
2019-05-15T03:53:29.818Z,98409.53
2019-05-15T03:55:59.155Z,98413.72
2019-05-15T03:58:28.827Z,98407.73
2019-05-15T04:01:00.342Z,98412.62
2019-05-15T04:03:29.952Z,98414.06
2019-05-15T04:06:00.576Z,98412.77
2019-05-15T04:08:29.932Z,98419.50
2019-05-15T04:10:59.623Z,98407.16
2019-05-15T04:13:30.086Z,98407.16
2019-05-15T04:15:59.467Z,98416.61
2019-05-15T04:18:29.135Z,98416.61
2019-05-15T04:21:00.242Z,98418.73
2019-05-15T04:23:30.411Z,98416.61
2019-05-15T04:25:59.143Z,98416.73
2019-05-15T04:28:29.428Z,98411.73
2019-05-15T04:30:59.617Z,98411.73
2019-05-15T04:33:29.287Z,98412.14
2019-05-15T04:35:58.940Z,98407.87
2019-05-15T04:38:29.248Z,98411.09
2019-05-15T04:40:59.094Z,98412.23
2019-05-15T04:43:30.175Z,98393.73
2019-05-15T04:45:59.083Z,98393.73
2019-05-15T04:48:29.042Z,98412.41
2019-05-15T04:50:58.885Z,98412.41
2019-05-15T04:53:29.711Z,98398.84
2019-05-15T04:55:59.702Z,98411.69
2019-05-15T04:58:29.600Z,98403.47
2019-05-15T05:00:59.927Z,98420.59
2019-05-15T05:03:29.221Z,98420.59
2019-05-15T05:05:59.071Z,98417.75
2019-05-15T05:08:29.257Z,98415.75
2019-05-15T05:10:59.136Z,98425.50
2019-05-15T05:13:28.701Z,98425.50
2019-05-15T05:15:58.775Z,98424.80
2019-05-15T05:18:29.843Z,98409.02
2019-05-15T05:20:57.822Z,98432.06
2019-05-15T05:23:28.193Z,98432.06
2019-05-15T05:25:58.097Z,98415.31
2019-05-15T05:28:28.722Z,98414.31
2019-05-15T05:30:58.784Z,98414.31
2019-05-15T05:33:28.434Z,98425.16
2019-05-15T05:35:58.357Z,98428.17
2019-05-15T05:38:28.174Z,98428.05
2019-05-15T05:40:58.680Z,98428.05
2019-05-15T05:43:26.820Z,98427.31
2019-05-15T05:45:55.156Z,98427.66
2019-05-15T05:48:23.506Z,98427.00
2019-05-15T05:50:51.895Z,98420.92
2019-05-15T05:53:21.315Z,98416.23
2019-05-15T05:55:53.007Z,98409.92
2019-05-15T05:58:20.088Z,98411.44
2019-05-15T06:00:49.205Z,98404.42
2019-05-15T06:03:19.714Z,98406.91
2019-05-15T06:05:49.554Z,98411.05
2019-05-15T06:08:19.444Z,98411.17
2019-05-15T06:10:49.656Z,98412.97
2019-05-15T06:13:18.635Z,98410.32
2019-05-15T06:15:48.895Z,98415.80
2019-05-15T06:18:19.570Z,98410.32
2019-05-15T06:20:49.535Z,98412.28
2019-05-15T06:23:23.277Z,98418.25
2019-05-15T06:25:48.829Z,98417.36
2019-05-15T06:28:19.612Z,98415.05
2019-05-15T06:30:48.613Z,98402.62
2019-05-15T06:33:18.845Z,98403.34
2019-05-15T06:35:48.862Z,98403.70
2019-05-15T06:38:19.260Z,98398.95
2019-05-15T06:40:49.925Z,98395.61
2019-05-15T06:43:19.464Z,98391.59
2019-05-15T06:45:48.835Z,98401.56
2019-05-15T06:48:18.333Z,98397.77
2019-05-15T06:50:49.047Z,98401.65
2019-05-15T06:53:19.332Z,98392.48
2019-05-15T06:55:48.576Z,98395.70
2019-05-15T06:58:19.226Z,98393.27
2019-05-15T07:00:48.824Z,98400.69
2019-05-15T07:03:24.883Z,98388.98
2019-05-15T07:05:50.727Z,98387.22
2019-05-15T07:08:18.397Z,98391.08
2019-05-15T07:10:48.685Z,98387.34
2019-05-15T07:13:18.225Z,98396.97
2019-05-15T07:15:49.311Z,98396.81
2019-05-15T07:18:19.385Z,98387.79
2019-05-15T07:20:48.851Z,98389.58
2019-05-15T07:23:18.796Z,98394.81
2019-05-15T07:25:49.776Z,98386.23
2019-05-15T07:28:18.295Z,98384.64
2019-05-15T07:30:49.412Z,98394.49
2019-05-15T07:33:28.051Z,98389.52
2019-05-15T07:35:49.284Z,98391.55
2019-05-15T07:38:18.271Z,98388.03
2019-05-15T07:40:55.499Z,98383.16
2019-05-15T07:43:18.137Z,98374.67
2019-05-15T07:45:53.998Z,98374.11
2019-05-15T07:48:18.900Z,98377.11
2019-05-15T07:50:49.685Z,98369.14
2019-05-15T07:53:19.681Z,98364.20
2019-05-15T07:55:50.197Z,98368.53
2019-05-15T07:58:21.389Z,98359.58
2019-05-15T08:00:49.311Z,98363.75
2019-05-15T08:03:18.518Z,98365.03
2019-05-15T08:05:58.664Z,98352.44
2019-05-15T08:08:18.535Z,98355.23
2019-05-15T08:10:48.909Z,98361.77
2019-05-15T08:13:18.538Z,98361.39
2019-05-15T08:15:48.831Z,98357.95
2019-05-15T08:18:18.140Z,98355.73
2019-05-15T08:21:02.620Z,98356.11
2019-05-15T08:23:19.329Z,98357.68
2019-05-15T08:25:48.584Z,98349.86
2019-05-15T08:28:18.957Z,98360.70
2019-05-15T08:30:49.457Z,98349.38
2019-05-15T08:33:17.993Z,98349.47
2019-05-15T08:35:51.089Z,98338.19
2019-05-15T08:38:18.202Z,98336.00
2019-05-15T08:40:48.885Z,98334.92
2019-05-15T08:43:18.341Z,98330.67
2019-05-15T08:45:49.483Z,98336.09
2019-05-15T08:48:18.433Z,98332.97
2019-05-15T08:50:48.826Z,98330.75
2019-05-15T08:53:19.273Z,98334.77
2019-05-15T08:55:48.170Z,98333.68
2019-05-15T08:58:20.374Z,98331.27
2019-05-15T09:00:51.797Z,98330.05
2019-05-15T09:03:18.343Z,98325.74
2019-05-15T09:05:48.447Z,98321.90
2019-05-15T09:08:19.429Z,98320.72
2019-05-15T09:10:49.859Z,98315.26
2019-05-15T09:13:18.973Z,98310.70
2019-05-15T09:15:48.391Z,98310.98
2019-05-15T09:18:19.886Z,98306.10
2019-05-15T09:20:49.123Z,98308.19
2019-05-15T09:23:19.200Z,98299.06
2019-05-15T09:25:49.337Z,98298.80
2019-05-15T09:28:19.048Z,98291.82
2019-05-15T09:30:48.293Z,98301.78
2019-05-15T09:33:19.611Z,98294.36
2019-05-15T09:35:49.060Z,98290.09
2019-05-15T09:38:18.510Z,98289.79
2019-05-15T09:40:50.444Z,98285.36
2019-05-15T09:43:18.132Z,98285.89
2019-05-15T09:45:49.207Z,98287.00
2019-05-15T09:48:19.794Z,98283.84
2019-05-15T09:50:49.243Z,98281.38
2019-05-15T09:53:18.932Z,98273.66
2019-05-15T09:55:49.343Z,98278.67
2019-05-15T09:58:20.405Z,98268.05
2019-05-15T10:00:51.823Z,98275.49
2019-05-15T10:03:19.168Z,98274.64
2019-05-15T10:05:48.293Z,98272.81
2019-05-15T10:08:20.926Z,98271.00
2019-05-15T10:10:48.794Z,98258.69
2019-05-15T10:13:18.615Z,98261.23
2019-05-15T10:15:50.675Z,98262.69
2019-05-15T10:18:18.988Z,98257.97
2019-05-15T10:20:47.694Z,98249.47
2019-05-15T10:23:19.183Z,98252.25
2019-05-15T10:25:48.595Z,98247.98
2019-05-15T10:28:18.784Z,98244.23
2019-05-15T10:30:49.277Z,98238.55
2019-05-15T10:33:19.703Z,98242.22
2019-05-15T10:35:47.563Z,98234.84
2019-05-15T10:38:15.877Z,98234.13
2019-05-15T10:40:58.467Z,98233.05
2019-05-15T10:43:14.465Z,98234.41
2019-05-15T10:45:43.469Z,98224.23
2019-05-15T10:48:11.952Z,98223.41
2019-05-15T10:50:40.330Z,98213.24
2019-05-15T10:53:11.206Z,98224.23
2019-05-15T10:55:39.692Z,98219.28
2019-05-15T10:58:16.669Z,98223.02
2019-05-15T11:00:38.451Z,98210.59
2019-05-15T11:03:08.917Z,98209.13
2019-05-15T11:05:45.084Z,98207.64
2019-05-15T11:08:08.297Z,98201.02
2019-05-15T11:10:38.573Z,98202.16
2019-05-15T11:13:09.006Z,98197.42
2019-05-15T11:15:40.436Z,98208.80
2019-05-15T11:18:09.316Z,98201.87
2019-05-15T11:20:40.863Z,98201.63
2019-05-15T11:23:09.082Z,98203.69
2019-05-15T11:25:37.824Z,98203.53
2019-05-15T11:28:08.228Z,98201.28
2019-05-15T11:30:39.031Z,98205.03
2019-05-15T11:33:09.345Z,98196.61
2019-05-15T11:35:40.781Z,98190.39
2019-05-15T11:38:10.019Z,98193.69
2019-05-15T11:40:38.925Z,98193.77
2019-05-15T11:43:08.579Z,98183.20
2019-05-15T11:45:38.964Z,98188.89
2019-05-15T11:48:09.031Z,98185.88
2019-05-15T11:50:39.962Z,98180.37
2019-05-15T11:53:08.690Z,98170.38
2019-05-15T11:55:38.603Z,98176.01
2019-05-15T11:58:09.327Z,98178.59
2019-05-15T12:00:38.422Z,98179.53
2019-05-15T12:03:09.022Z,98176.12
2019-05-15T12:05:38.631Z,98167.34
2019-05-15T12:08:08.694Z,98165.58
2019-05-15T12:10:38.877Z,98150.17
2019-05-15T12:13:09.750Z,98162.27
2019-05-15T12:15:38.798Z,98157.64
2019-05-15T12:18:08.858Z,98163.66
2019-05-15T12:20:38.957Z,98158.55
2019-05-15T12:23:09.126Z,98158.36
2019-05-15T12:25:39.604Z,98156.35
2019-05-15T12:28:09.539Z,98154.66
2019-05-15T12:30:40.291Z,98160.84
2019-05-15T12:33:09.801Z,98150.92
2019-05-15T12:35:39.632Z,98146.94
2019-05-15T13:00:39.764Z,98144.13
2019-05-15T13:03:09.142Z,98138.61
2019-05-15T13:05:39.173Z,98140.90
2019-05-15T13:08:08.543Z,98137.14
2019-05-15T13:10:38.563Z,98135.52
2019-05-15T13:13:09.674Z,98132.17
2019-05-15T13:15:41.085Z,98129.94
2019-05-15T13:18:13.418Z,98126.19
2019-05-15T13:20:38.387Z,98133.83
2019-05-15T13:23:07.919Z,98130.15
2019-05-15T13:25:38.982Z,98129.75
2019-05-15T13:28:08.607Z,98135.69
2019-05-15T13:30:40.448Z,98129.05
2019-05-15T13:33:09.412Z,98131.38
2019-05-15T13:35:38.098Z,98129.63
2019-05-15T13:38:09.484Z,98137.05
2019-05-15T13:40:39.006Z,98126.89
2019-05-15T13:43:08.391Z,98123.19
2019-05-15T13:45:38.732Z,98121.08
2019-05-15T13:48:08.960Z,98124.97
2019-05-15T13:50:40.231Z,98112.86
2019-05-15T13:53:10.908Z,98111.86
2019-05-15T13:55:42.089Z,98117.56
2019-05-15T13:58:08.709Z,98114.70
2019-05-15T14:00:39.026Z,98115.57
2019-05-15T14:03:09.027Z,98116.83
2019-05-15T14:05:38.532Z,98112.98
2019-05-15T14:08:07.207Z,98113.11
2019-05-15T14:10:38.277Z,98108.48
2019-05-15T14:13:06.234Z,98113.38
2019-05-15T14:15:34.645Z,98109.73
2019-05-15T14:18:03.118Z,98104.45
2019-05-15T14:20:31.412Z,98103.63
2019-05-15T14:22:59.763Z,98101.45
2019-05-15T14:25:28.233Z,98103.98
2019-05-15T14:27:59.106Z,98102.92
2019-05-15T14:30:29.307Z,98095.44
2019-05-15T14:32:59.597Z,98102.53
2019-05-15T14:35:27.289Z,98099.43
2019-05-15T14:38:03.633Z,98100.97
2019-05-15T14:40:25.735Z,98092.86
2019-05-15T14:42:54.101Z,98094.77
2019-05-15T14:45:22.532Z,98087.36
2019-05-15T14:47:50.860Z,98092.76
2019-05-15T14:50:19.254Z,98101.28
2019-05-15T14:52:48.051Z,98093.20
2019-05-15T14:55:16.546Z,98090.98
2019-05-15T14:57:45.327Z,98090.94
2019-05-15T15:00:13.994Z,98088.20
2019-05-15T15:02:42.434Z,98083.48
2019-05-15T15:05:11.297Z,98083.28
2019-05-15T15:07:41.099Z,98087.74
2019-05-15T15:10:09.835Z,98081.17
2019-05-15T15:12:39.619Z,98083.82
2019-05-15T15:15:10.284Z,98076.97
2019-05-15T15:17:39.092Z,98082.59
2019-05-15T15:20:09.297Z,98074.91
2019-05-15T15:22:39.517Z,98079.51
2019-05-15T15:25:09.668Z,98080.58
2019-05-15T15:27:39.096Z,98078.53
2019-05-15T15:30:09.308Z,98078.78
2019-05-15T15:32:38.401Z,98073.73
2019-05-15T15:35:08.477Z,98075.64
2019-05-15T15:37:38.168Z,98073.66
2019-05-15T15:40:08.295Z,98074.54
2019-05-15T15:42:39.496Z,98072.97
2019-05-15T15:45:09.234Z,98071.05
2019-05-15T15:47:38.957Z,98070.50
2019-05-15T15:50:09.419Z,98076.48
2019-05-15T15:52:38.740Z,98074.98
2019-05-15T15:55:09.027Z,98068.50
2019-05-15T15:57:39.782Z,98069.23
2019-05-15T16:00:11.033Z,98071.39
2019-05-15T16:02:41.080Z,98076.53
2019-05-15T16:05:10.882Z,98078.88
2019-05-15T16:07:39.438Z,98079.59
2019-05-15T16:10:09.590Z,98081.77
2019-05-15T16:12:39.022Z,98079.55
2019-05-15T16:15:09.215Z,98075.86
2019-05-15T16:17:38.376Z,98082.08
2019-05-15T16:20:08.367Z,98077.80
2019-05-15T16:22:38.235Z,98076.08
2019-05-15T16:25:10.412Z,98081.69
2019-05-15T16:27:38.743Z,98077.62
2019-05-15T16:30:08.205Z,98084.70
2019-05-15T16:32:38.910Z,98087.44
2019-05-15T16:35:08.449Z,98084.48
2019-05-15T16:37:39.025Z,98074.14
2019-05-15T16:40:10.100Z,98084.88
2019-05-15T16:42:38.884Z,98080.86
2019-05-15T16:45:10.785Z,98076.85
2019-05-15T16:47:40.370Z,98082.64
2019-05-15T16:50:09.240Z,98084.51
2019-05-15T16:52:38.776Z,98089.43
2019-05-15T16:55:09.242Z,98083.03
2019-05-15T16:57:38.780Z,98082.06
2019-05-15T17:00:10.134Z,98077.06
2019-05-15T17:02:40.273Z,98071.64
2019-05-15T17:05:09.437Z,98084.21
2019-05-15T17:07:38.754Z,98083.01
2019-05-15T17:10:08.826Z,98080.36
2019-05-15T17:12:38.806Z,98082.31
2019-05-15T17:15:08.856Z,98078.44
2019-05-15T17:18:01.466Z,98084.50
2019-05-15T17:20:29.783Z,98085.45
2019-05-15T17:22:58.198Z,98080.64
2019-05-15T17:25:26.602Z,98084.05
2019-05-15T17:27:55.092Z,98084.06
2019-05-15T17:30:23.630Z,98078.61
2019-05-15T17:32:52.237Z,98079.80
2019-05-15T17:35:20.525Z,98080.70
2019-05-15T17:37:48.952Z,98076.05
2019-05-15T17:40:17.785Z,98081.11
2019-05-15T17:42:48.988Z,98030.24
2019-05-15T17:46:01.911Z,98080.89
2019-05-15T17:48:30.255Z,98082.49
2019-05-15T17:50:59.471Z,98097.39
2019-05-15T17:53:28.833Z,98080.23
2019-05-15T17:55:58.573Z,98078.00
2019-05-15T17:58:28.830Z,98077.66
2019-05-15T18:00:59.645Z,98079.51
2019-05-15T18:03:28.874Z,98073.80
2019-05-15T18:05:59.107Z,98078.06
2019-05-15T18:08:28.622Z,98077.66
2019-05-15T18:10:58.725Z,98081.04
2019-05-15T18:13:28.712Z,98081.22
2019-05-15T18:16:03.409Z,98082.08
2019-05-15T18:18:27.530Z,98080.81
2019-05-15T18:21:02.002Z,98086.17
2019-05-15T18:23:30.385Z,98086.04
2019-05-15T18:26:02.279Z,98089.88
2019-05-15T18:28:30.642Z,98089.70
2019-05-15T18:31:04.820Z,98091.14
2019-05-15T18:33:33.294Z,98090.19
2019-05-15T18:36:04.657Z,98093.12
2019-05-15T18:38:33.258Z,98093.16
2019-05-15T18:41:04.357Z,98099.06
2019-05-15T18:44:03.064Z,98098.55
2019-05-15T18:46:31.485Z,98096.21
2019-05-15T18:49:02.675Z,98103.50
2019-05-15T18:51:31.066Z,98104.92
2019-05-15T18:54:02.492Z,98100.20
2019-05-15T18:56:30.964Z,98106.73
2019-05-15T18:58:59.383Z,98107.86
2019-05-15T19:01:28.437Z,98106.31
2019-05-15T19:04:02.914Z,98104.80
2019-05-15T19:06:31.450Z,98109.58
2019-05-15T19:09:04.689Z,98113.91
2019-05-15T19:11:33.106Z,98117.18
2019-05-15T19:14:04.568Z,98115.86
2019-05-15T19:17:03.598Z,98119.48
2019-05-15T19:19:32.248Z,98112.02
2019-05-15T19:22:00.651Z,98123.03
2019-05-15T19:24:29.116Z,98117.09
2019-05-15T19:27:03.257Z,98119.81
2019-05-15T19:29:32.352Z,98123.63
2019-05-15T19:32:00.790Z,98117.41
2019-05-15T19:34:29.275Z,98122.52
2019-05-15T19:36:58.197Z,98117.90
2019-05-15T19:40:03.151Z,98127.02
2019-05-15T19:42:31.802Z,98124.58
2019-05-15T19:45:00.203Z,98130.78
2019-05-15T19:47:28.562Z,98128.16
2019-05-15T19:49:57.807Z,98127.36
2019-05-15T19:52:28.276Z,98124.09
2019-05-15T19:54:57.810Z,98132.78
2019-05-15T19:57:28.032Z,98122.05
2019-05-15T19:59:58.161Z,98123.63
2019-05-15T20:02:28.557Z,98119.91
2019-05-15T20:04:58.321Z,98124.02
2019-05-15T20:07:28.654Z,98116.59
2019-05-15T20:09:58.436Z,98122.75
2019-05-15T20:12:27.892Z,98127.11
2019-05-15T20:14:58.370Z,98124.67
2019-05-15T20:17:27.725Z,98116.36
2019-05-15T20:19:58.064Z,98118.27
2019-05-15T20:22:28.394Z,98115.39
2019-05-15T20:24:58.846Z,98113.58
2019-05-15T20:27:28.229Z,98108.19
2019-05-15T20:29:56.562Z,98104.17
2019-05-15T20:32:27.673Z,98104.81
2019-05-15T20:34:57.820Z,98107.88
2019-05-15T20:37:28.681Z,98098.48
2019-05-15T20:39:58.199Z,98093.94
2019-05-15T20:42:26.389Z,98098.03
2019-05-15T20:44:54.758Z,98095.64
2019-05-15T20:47:23.196Z,98094.03
2019-05-15T20:49:51.591Z,98096.50
2019-05-15T20:52:21.729Z,98092.48
2019-05-15T20:54:50.407Z,98095.83
2019-05-15T20:57:18.808Z,98094.52
2019-05-15T20:59:48.023Z,98095.86
2019-05-15T21:02:18.573Z,98099.63
2019-05-15T21:04:47.002Z,98096.75
2019-05-15T21:07:15.424Z,98099.26
2019-05-15T21:09:43.817Z,98100.88
2019-05-15T21:12:12.159Z,98101.45
2019-05-15T21:14:40.848Z,98102.83
2019-05-15T21:17:09.218Z,98105.53
2019-05-15T21:19:38.626Z,98100.20
2019-05-15T21:22:08.348Z,98102.61
2019-05-15T21:24:37.869Z,98101.27
2019-05-15T21:27:06.436Z,98103.11
2019-05-15T21:34:01.357Z,98095.09
2019-05-15T21:37:03.148Z,98095.13
2019-05-15T21:44:01.079Z,98094.70
2019-05-15T21:47:03.094Z,98093.12
2019-05-15T21:50:02.068Z,98092.39
2019-05-15T21:53:03.328Z,98085.14
2019-05-15T21:56:02.220Z,98087.88
2019-05-15T21:59:03.758Z,98091.66
2019-05-15T22:02:02.593Z,98084.94
2019-05-15T22:05:04.820Z,98080.11
2019-05-15T22:11:04.818Z,98072.92
2019-05-15T22:14:03.412Z,98067.57
2019-05-15T22:17:02.054Z,98067.86
2019-05-15T22:20:04.750Z,98062.02
2019-05-15T22:23:04.542Z,98063.69
2019-05-15T22:26:03.004Z,98062.66
2019-05-15T22:29:01.592Z,98058.92
2019-05-15T22:32:03.459Z,98055.46
2019-05-15T22:35:09.120Z,98050.34
2019-05-15T22:38:02.363Z,98044.70
2019-05-15T22:41:04.231Z,98040.14
2019-05-15T22:44:02.896Z,98032.36
2019-05-15T22:47:01.657Z,98027.80
2019-05-15T22:50:04.543Z,98023.27
2019-05-15T22:53:03.325Z,98011.47
2019-05-15T22:56:02.444Z,98014.73
2019-05-15T23:07:08.197Z,97997.59
2019-05-15T23:10:05.120Z,97992.50
2019-05-15T23:13:03.783Z,97991.70
2019-05-15T23:16:03.198Z,97986.86
2019-05-15T23:19:01.681Z,97982.34
2019-05-15T23:22:03.499Z,97981.27
2019-05-15T23:25:02.313Z,97972.69
2019-05-15T23:28:04.053Z,97971.63
2019-05-15T23:31:02.629Z,97971.34
2019-05-15T23:34:01.525Z,97962.52
2019-05-15T23:36:59.776Z,97964.10
2019-05-15T23:43:03.207Z,97944.56
2019-05-15T23:46:01.460Z,97937.84
2019-05-15T23:48:29.775Z,97935.17
2019-05-15T23:50:59.172Z,97925.55
2019-05-15T23:53:28.800Z,97927.96
2019-05-15T23:55:58.757Z,97921.53
2019-05-15T23:58:29.126Z,97912.95
